Time;durP1;ratioP1;P1;durP2;ratioP2;P2;SDS_P1;SDS_P2;PMS_P1;PMS_P2;Temp;Humidity;BMP_temperature;BMP_pressure;BME280_temperature;BME280_humidity;BME280_pressure;Samples;Min_cycle;Max_cycle;Signal;HPM_P1;HPM_P2
2022/03/26 00:00:20;;;;;;;9.13;7.07;;;21.10;40.40;;;;;;5009047;28;20482;-65
2022/03/26 00:02:46;;;;;;;8.70;6.95;;;21.10;40.40;;;;;;5000684;28;20053;-66
2022/03/26 00:05:11;;;;;;;7.47;6.60;;;21.20;40.40;;;;;;4999634;28;20042;-65
2022/03/26 00:07:37;;;;;;;9.52;7.43;;;21.10;40.30;;;;;;5002989;28;20589;-65
2022/03/26 00:10:04;;;;;;;8.20;7.18;;;21.10;40.20;;;;;;4999681;28;20048;-65
2022/03/26 00:12:30;;;;;;;7.90;7.13;;;21.10;40.30;;;;;;5002181;28;20045;-65
2022/03/26 00:14:55;;;;;;;8.45;6.60;;;21.10;40.20;;;;;;5000132;28;20046;-65
2022/03/26 00:17:21;;;;;;;8.02;6.97;;;21.10;40.10;;;;;;5001440;28;20041;-65
2022/03/26 00:19:46;;;;;;;8.90;7.10;;;21.10;40.00;;;;;;4998902;28;20042;-65
2022/03/26 00:22:12;;;;;;;7.68;6.88;;;21.10;40.00;;;;;;5002678;28;20041;-65
2022/03/26 00:24:38;;;;;;;9.07;7.60;;;21.10;39.90;;;;;;4999300;28;20042;-65
2022/03/26 00:27:03;;;;;;;9.73;7.38;;;21.10;40.00;;;;;;5002321;28;20108;-65
2022/03/26 00:29:29;;;;;;;9.95;7.35;;;21.00;39.90;;;;;;5002180;28;20204;-65
2022/03/26 00:31:54;;;;;;;9.77;7.30;;;21.00;39.90;;;;;;5003186;28;20041;-65
2022/03/26 00:34:20;;;;;;;9.23;6.93;;;21.00;39.90;;;;;;5000041;28;20042;-66
2022/03/26 00:36:45;;;;;;;8.82;7.20;;;21.00;39.80;;;;;;4999549;28;20150;-65
2022/03/26 00:39:11;;;;;;;8.00;7.18;;;21.00;39.80;;;;;;4999961;28;20053;-65
2022/03/26 00:41:37;;;;;;;8.52;7.63;;;21.00;39.70;;;;;;5000655;28;20042;-65
2022/03/26 00:44:02;;;;;;;10.07;7.40;;;21.00;39.70;;;;;;5000775;28;20417;-65
2022/03/26 00:46:28;;;;;;;9.75;8.10;;;21.00;39.70;;;;;;4984691;28;20805;-65
2022/03/26 00:48:56;;;;;;;10.82;7.20;;;21.00;39.70;;;;;;5004334;28;20424;-66
2022/03/26 00:51:22;;;;;;;8.05;7.28;;;21.00;40.30;;;;;;4986875;28;20054;-66
2022/03/26 00:53:48;;;;;;;8.38;7.57;;;21.00;39.60;;;;;;5005430;28;20543;-66
2022/03/26 00:56:13;;;;;;;9.35;7.55;;;21.00;39.50;;;;;;4986824;28;20072;-68
2022/03/26 00:58:40;;;;;;;9.77;7.55;;;20.90;39.40;;;;;;5005052;28;20064;-68
2022/03/26 01:01:07;;;;;;;9.02;6.95;;;21.00;39.50;;;;;;5003518;28;20124;-65
2022/03/26 01:03:33;;;;;;;10.82;7.90;;;20.90;39.30;;;;;;4987533;28;20052;-65
2022/03/26 01:05:59;;;;;;;8.52;7.63;;;20.90;39.40;;;;;;5002482;28;20037;-66
2022/03/26 01:08:24;;;;;;;8.77;7.85;;;20.90;39.40;;;;;;5005520;28;20068;-67
2022/03/26 01:10:50;;;;;;;8.93;7.93;;;20.90;39.30;;;;;;4985822;28;20115;-65
2022/03/26 01:13:16;;;;;;;8.77;7.85;;;20.90;39.30;;;;;;5004179;28;20034;-66
2022/03/26 01:15:42;;;;;;;9.40;8.40;;;20.90;39.20;;;;;;5003153;28;20046;-66
2022/03/26 01:18:09;;;;;;;10.38;7.97;;;20.90;39.30;;;;;;5003206;28;20038;-65
2022/03/26 01:20:35;;;;;;;9.50;8.50;;;20.90;39.20;;;;;;4986031;28;20490;-65
2022/03/26 01:23:01;;;;;;;11.25;7.90;;;20.90;39.20;;;;;;4986815;28;20943;-65
2022/03/26 01:25:27;;;;;;;10.13;8.95;;;20.90;39.30;;;;;;5004612;28;20129;-66
2022/03/26 01:27:53;;;;;;;10.30;8.82;;;20.90;39.10;;;;;;4986914;28;20049;-65
2022/03/26 01:30:18;;;;;;;10.45;8.23;;;20.90;39.10;;;;;;5003393;28;20058;-65
2022/03/26 01:32:44;;;;;;;10.15;8.13;;;20.80;39.00;;;;;;5002907;28;20088;-65
2022/03/26 01:35:11;;;;;;;9.75;8.75;;;20.90;39.10;;;;;;5003360;28;20046;-65
2022/03/26 01:37:37;;;;;;;9.80;8.80;;;20.90;39.00;;;;;;4992318;28;20543;-66
2022/03/26 01:40:04;;;;;;;10.13;9.10;;;20.80;39.00;;;;;;5002807;28;20058;-66
2022/03/26 01:42:30;;;;;;;10.23;9.13;;;20.80;38.90;;;;;;5004390;28;20049;-65
2022/03/26 01:44:55;;;;;;;9.93;8.80;;;20.80;38.90;;;;;;5004019;28;20033;-65
2022/03/26 01:47:21;;;;;;;9.30;8.35;;;20.80;38.90;;;;;;5004078;28;20060;-65
2022/03/26 01:49:46;;;;;;;9.82;8.80;;;20.80;38.90;;;;;;5001601;28;20049;-67
2022/03/26 01:52:12;;;;;;;9.35;8.45;;;20.80;38.90;;;;;;5001889;28;20046;-65
2022/03/26 01:54:39;;;;;;;10.73;8.73;;;20.80;38.90;;;;;;5003773;28;20050;-65
2022/03/26 01:57:06;;;;;;;9.73;8.73;;;20.80;38.90;;;;;;5012076;28;20056;-66
2022/03/26 01:59:32;;;;;;;10.50;8.82;;;20.80;38.80;;;;;;5002835;28;20503;-66
2022/03/26 02:01:58;;;;;;;9.95;8.95;;;20.80;38.80;;;;;;5003597;28;20040;-65
2022/03/26 02:04:24;;;;;;;10.95;8.93;;;20.80;38.90;;;;;;5002512;28;20477;-66
2022/03/26 02:06:50;;;;;;;10.25;9.15;;;20.80;38.80;;;;;;5001057;28;20081;-66
2022/03/26 02:09:16;;;;;;;11.43;9.55;;;20.80;38.80;;;;;;5002757;28;20620;-65
2022/03/26 02:11:44;;;;;;;11.63;9.48;;;20.80;38.80;;;;;;5003360;28;20117;-66
2022/03/26 02:14:11;;;;;;;11.07;9.18;;;20.70;38.70;;;;;;5002489;28;20085;-67
2022/03/26 02:16:38;;;;;;;10.07;8.95;;;20.80;38.70;;;;;;5018348;28;20065;-65
2022/03/26 02:19:06;;;;;;;9.82;8.82;;;20.70;38.70;;;;;;5004149;28;20042;-65
2022/03/26 02:21:34;;;;;;;10.52;9.35;;;20.70;38.70;;;;;;5002352;28;20045;-67
2022/03/26 02:24:00;;;;;;;11.10;10.00;;;20.70;38.60;;;;;;5002576;28;20089;-65
2022/03/26 02:26:26;;;;;;;10.90;9.15;;;20.70;38.60;;;;;;5002749;28;20042;-65
2022/03/26 02:28:56;;;;;;;10.65;9.57;;;20.70;38.60;;;;;;5003855;28;21641;-65
2022/03/26 02:31:23;;;;;;;11.10;10.00;;;20.70;38.50;;;;;;5017705;28;20045;-66
2022/03/26 02:33:49;;;;;;;11.20;9.75;;;20.70;38.60;;;;;;5002127;28;20033;-66
2022/03/26 02:36:15;;;;;;;11.93;10.10;;;20.70;38.70;;;;;;5002296;28;20103;-65
2022/03/26 02:38:41;;;;;;;11.30;10.13;;;20.70;38.50;;;;;;5002131;28;20152;-65
2022/03/26 02:41:08;;;;;;;12.05;10.13;;;20.70;38.50;;;;;;5002484;28;20050;-66
2022/03/26 02:43:34;;;;;;;11.32;10.13;;;20.70;38.50;;;;;;5003502;28;20036;-66
2022/03/26 02:46:01;;;;;;;13.27;10.02;;;20.70;38.50;;;;;;4984734;28;20485;-66
2022/03/26 02:48:27;;;;;;;12.20;10.60;;;20.70;38.40;;;;;;5002622;28;20125;-67
2022/03/26 02:50:53;;;;;;;11.43;10.23;;;20.60;38.50;;;;;;4984961;28;20175;-66
2022/03/26 02:53:18;;;;;;;12.55;10.80;;;20.70;38.50;;;;;;5002758;28;20045;-66
2022/03/26 02:55:44;;;;;;;12.60;10.60;;;20.70;38.40;;;;;;5003627;28;20037;-65
2022/03/26 02:58:10;;;;;;;11.18;9.95;;;20.60;38.40;;;;;;5001511;28;20029;-67
2022/03/26 03:00:38;;;;;;;11.43;10.30;;;20.60;38.40;;;;;;4996437;28;20029;-67
2022/03/26 03:03:04;;;;;;;13.00;10.50;;;20.70;38.40;;;;;;5001218;28;20621;-66
2022/03/26 03:05:29;;;;;;;11.55;10.35;;;20.60;38.40;;;;;;5000015;28;20048;-65
2022/03/26 03:07:56;;;;;;;11.55;10.35;;;20.60;38.40;;;;;;4966942;28;20498;-66
2022/03/26 03:10:22;;;;;;;12.85;10.93;;;20.60;38.40;;;;;;4983876;28;20050;-65
2022/03/26 03:12:48;;;;;;;12.52;10.60;;;20.60;38.40;;;;;;5001521;28;20582;-65
2022/03/26 03:15:18;;;;;;;13.82;11.23;;;20.60;38.40;;;;;;5003847;28;20116;-66
2022/03/26 03:17:45;;;;;;;12.77;10.70;;;20.60;38.30;;;;;;5002155;28;20045;-65
2022/03/26 03:20:12;;;;;;;11.23;10.13;;;20.60;38.30;;;;;;4998553;28;20037;-64
2022/03/26 03:22:38;;;;;;;11.88;10.57;;;20.60;38.30;;;;;;4999210;28;20096;-66
2022/03/26 03:25:05;;;;;;;12.90;11.30;;;20.60;38.30;;;;;;5002344;28;20168;-65
2022/03/26 03:27:31;;;;;;;13.82;11.30;;;20.60;38.30;;;;;;5002873;28;20080;-65
2022/03/26 03:29:57;;;;;;;12.52;10.23;;;20.50;38.20;;;;;;4985026;28;20050;-65
2022/03/26 03:32:22;;;;;;;12.23;10.13;;;20.50;38.20;;;;;;4983256;28;20050;-65
2022/03/26 03:34:48;;;;;;;12.55;11.25;;;20.50;38.20;;;;;;4984058;28;20046;-66
2022/03/26 03:37:14;;;;;;;12.05;10.65;;;20.50;38.20;;;;;;5001365;28;20057;-65
2022/03/26 03:39:39;;;;;;;13.43;11.30;;;20.50;38.20;;;;;;5000936;28;20123;-66
2022/03/26 03:42:05;;;;;;;13.05;11.60;;;20.50;38.10;;;;;;5003329;28;20045;-65
2022/03/26 03:44:31;;;;;;;12.48;11.18;;;20.50;38.10;;;;;;5002245;28;20049;-65
2022/03/26 03:46:57;;;;;;;12.90;11.02;;;20.50;38.10;;;;;;5001343;28;20365;-66
2022/03/26 03:49:23;;;;;;;13.15;11.60;;;20.50;38.10;;;;;;5000130;28;20473;-65
2022/03/26 03:51:49;;;;;;;12.07;10.80;;;20.50;38.10;;;;;;5001930;28;20053;-65
2022/03/26 03:54:15;;;;;;;13.82;11.60;;;20.50;38.10;;;;;;4984353;28;20105;-65
2022/03/26 03:56:41;;;;;;;12.65;11.30;;;20.50;38.00;;;;;;4982776;28;20514;-66
2022/03/26 03:59:07;;;;;;;11.85;10.65;;;20.50;38.10;;;;;;5001767;28;20073;-65
2022/03/26 04:01:33;;;;;;;12.93;11.15;;;20.50;38.00;;;;;;4983727;28;20551;-66
2022/03/26 04:03:59;;;;;;;12.30;11.05;;;20.50;38.10;;;;;;5001874;28;20125;-66
2022/03/26 04:06:24;;;;;;;11.63;10.43;;;20.50;38.00;;;;;;5001098;28;20129;-66
2022/03/26 04:08:50;;;;;;;13.40;11.23;;;20.50;38.70;;;;;;4998611;28;20050;-65
2022/03/26 04:11:16;;;;;;;12.50;11.02;;;20.50;38.00;;;;;;5003021;28;20046;-67
2022/03/26 04:13:41;;;;;;;11.85;10.63;;;20.50;38.00;;;;;;4982980;28;20053;-65
2022/03/26 04:16:07;;;;;;;13.13;11.32;;;20.50;37.90;;;;;;5002678;28;20486;-65
2022/03/26 04:18:34;;;;;;;13.38;11.38;;;20.50;38.00;;;;;;5002028;28;20034;-65
2022/03/26 04:21:00;;;;;;;12.70;11.20;;;20.40;38.00;;;;;;4983636;28;20567;-65
2022/03/26 04:23:26;;;;;;;12.82;11.18;;;20.40;37.90;;;;;;5002953;28;20508;-65
2022/03/26 04:25:52;;;;;;;12.25;10.95;;;20.40;37.90;;;;;;5003352;28;20121;-65
2022/03/26 04:28:17;;;;;;;13.45;11.10;;;20.40;37.90;;;;;;5005259;28;20038;-65
2022/03/26 04:30:43;;;;;;;14.30;11.60;;;20.40;37.80;;;;;;5003623;28;20339;-67
2022/03/26 04:33:09;;;;;;;13.50;11.60;;;20.40;37.90;;;;;;4986931;28;20038;-65
2022/03/26 04:35:35;;;;;;;14.38;12.38;;;20.40;37.80;;;;;;5005223;28;20416;-65
2022/03/26 04:38:01;;;;;;;13.32;11.20;;;20.40;37.80;;;;;;4985479;28;20120;-65
2022/03/26 04:40:28;;;;;;;14.30;11.90;;;20.40;37.80;;;;;;5004289;28;20457;-67
2022/03/26 04:42:54;;;;;;;14.27;11.57;;;20.40;37.80;;;;;;5005101;28;20046;-67
2022/03/26 04:45:20;;;;;;;13.70;11.80;;;20.40;37.80;;;;;;5004518;28;20066;-65
2022/03/26 04:47:46;;;;;;;14.80;11.52;;;20.40;37.80;;;;;;5005398;28;20042;-66
2022/03/26 04:50:12;;;;;;;14.55;11.43;;;20.40;37.70;;;;;;4986602;28;20057;-66
2022/03/26 04:52:38;;;;;;;12.32;11.02;;;20.40;37.80;;;;;;4984765;28;20038;-65
2022/03/26 04:55:08;;;;;;;13.35;11.95;;;20.40;37.80;;;;;;5004968;28;20049;-67
2022/03/26 04:57:45;;;;;;;14.65;12.48;;;20.40;37.70;;;;;;5005555;28;20041;-67
2022/03/26 05:00:12;;;;;;;14.70;12.40;;;20.40;37.70;;;;;;5001956;28;20441;-67
2022/03/26 05:02:39;;;;;;;13.25;11.85;;;20.40;37.70;;;;;;5002361;28;20038;-66
2022/03/26 05:05:06;;;;;;;14.43;11.88;;;20.40;37.70;;;;;;5002467;28;20046;-66
2022/03/26 05:07:47;;;;;;;15.48;11.98;;;20.40;37.80;;;;;;5003196;28;20081;-65
2022/03/26 05:10:23;;;;;;;14.18;11.63;;;20.40;37.70;;;;;;5004516;28;20045;-65
2022/03/26 05:12:50;;;;;;;13.18;11.77;;;20.30;37.60;;;;;;5004580;28;20473;-65
2022/03/26 05:15:18;;;;;;;12.55;11.25;;;20.30;37.60;;;;;;5001180;28;20060;-65
2022/03/26 05:17:44;;;;;;;13.10;11.70;;;20.30;37.60;;;;;;5004566;28;20353;-65
2022/03/26 05:20:12;;;;;;;13.55;12.07;;;20.30;37.60;;;;;;4981905;28;20052;-67
2022/03/26 05:22:39;;;;;;;14.85;11.20;;;20.30;37.60;;;;;;5002164;28;20117;-65
2022/03/26 05:25:05;;;;;;;14.18;11.70;;;20.30;37.60;;;;;;5001884;28;20428;-66
2022/03/26 05:27:30;;;;;;;14.65;12.20;;;20.30;37.60;;;;;;5003748;28;20042;-65
2022/03/26 05:29:56;;;;;;;13.32;11.93;;;20.30;37.60;;;;;;4986749;28;20485;-65
2022/03/26 05:32:22;;;;;;;14.60;12.20;;;20.30;37.50;;;;;;5004485;28;20042;-66
2022/03/26 05:34:47;;;;;;;13.18;11.85;;;20.30;37.50;;;;;;4985368;28;20054;-65
2022/03/26 05:37:13;;;;;;;13.95;12.48;;;20.30;37.60;;;;;;4988339;28;20077;-66
2022/03/26 05:39:39;;;;;;;14.20;12.43;;;20.30;37.50;;;;;;5002513;28;20147;-65
2022/03/26 05:42:05;;;;;;;15.35;12.30;;;20.30;37.50;;;;;;5002628;28;20048;-65
2022/03/26 05:44:31;;;;;;;14.77;12.30;;;20.20;37.40;;;;;;5005061;28;20070;-66
2022/03/26 05:46:57;;;;;;;15.35;12.68;;;20.20;37.40;;;;;;5019874;28;20088;-65
2022/03/26 05:49:24;;;;;;;14.13;11.88;;;20.20;37.40;;;;;;5004051;28;20081;-65
2022/03/26 05:51:50;;;;;;;13.90;12.40;;;20.30;37.50;;;;;;5004525;28;20049;-67
2022/03/26 05:54:16;;;;;;;13.48;11.55;;;20.20;37.50;;;;;;5002471;28;20049;-67
2022/03/26 05:56:51;;;;;;;14.55;12.25;;;20.20;37.40;;;;;;5004325;28;20121;-65
2022/03/26 05:59:20;;;;;;;14.40;12.25;;;20.20;37.40;;;;;;5004757;28;20045;-66
2022/03/26 06:01:55;;;;;;;14.38;12.88;;;20.30;37.50;;;;;;5004151;28;20149;-67
2022/03/26 06:04:23;;;;;;;13.25;11.85;;;20.20;37.40;;;;;;5005227;28;20504;-66
2022/03/26 06:06:49;;;;;;;14.00;12.02;;;20.20;37.40;;;;;;5019056;28;20051;-66
2022/03/26 06:09:15;;;;;;;13.88;12.48;;;20.20;37.40;;;;;;5002185;28;20084;-65
2022/03/26 06:11:40;;;;;;;14.27;12.90;;;20.30;37.50;;;;;;5002077;28;20049;-65
2022/03/26 06:14:06;;;;;;;17.05;13.18;;;20.20;37.40;;;;;;5003762;28;20050;-66
2022/03/26 06:16:33;;;;;;;14.95;12.95;;;20.30;37.50;;;;;;5018957;28;20128;-65
2022/03/26 06:18:59;;;;;;;14.40;12.90;;;20.20;37.50;;;;;;5002441;28;20098;-65
2022/03/26 06:21:25;;;;;;;14.43;12.90;;;20.20;37.50;;;;;;5001689;28;20048;-65
2022/03/26 06:23:50;;;;;;;14.13;12.57;;;20.30;37.50;;;;;;5001569;28;20049;-65
2022/03/26 06:26:16;;;;;;;15.27;13.07;;;20.20;37.50;;;;;;5003269;28;20481;-66
2022/03/26 06:28:42;;;;;;;15.23;12.88;;;20.30;37.50;;;;;;5004767;28;20050;-65
2022/03/26 06:31:08;;;;;;;14.95;13.35;;;20.20;37.50;;;;;;5002718;28;20077;-66
2022/03/26 06:33:34;;;;;;;16.52;13.43;;;20.30;37.60;;;;;;5003602;28;20038;-65
2022/03/26 06:36:00;;;;;;;15.05;12.88;;;20.30;37.60;;;;;;5017147;28;20034;-67
2022/03/26 06:38:31;;;;;;;14.93;12.40;;;20.30;37.60;;;;;;5017271;28;20128;-65
2022/03/26 06:40:57;;;;;;;16.58;13.60;;;20.30;37.60;;;;;;5018150;28;20061;-66
2022/03/26 06:43:22;;;;;;;16.00;13.57;;;20.30;37.60;;;;;;5009034;28;20488;-65
2022/03/26 06:45:48;;;;;;;15.18;12.70;;;20.30;37.60;;;;;;5002746;28;20038;-66
2022/03/26 06:48:13;;;;;;;14.50;13.00;;;20.30;37.70;;;;;;4999684;28;20508;-65
2022/03/26 06:50:39;;;;;;;14.95;12.95;;;20.30;37.70;;;;;;5002207;28;20045;-65
2022/03/26 06:53:04;;;;;;;16.85;14.05;;;20.30;37.70;;;;;;5001715;28;20042;-65
2022/03/26 06:55:30;;;;;;;14.02;12.55;;;20.30;37.70;;;;;;5003088;28;20045;-66
2022/03/26 06:57:55;;;;;;;14.85;12.65;;;20.40;37.90;;;;;;5017625;28;20159;-66
2022/03/26 07:00:21;;;;;;;12.55;11.00;;;20.40;37.90;;;;;;5003798;28;20401;-65
2022/03/26 07:02:47;;;;;;;11.75;10.55;;;20.40;38.00;;;;;;4999485;28;20482;-65
2022/03/26 07:05:12;;;;;;;14.57;12.80;;;20.40;38.10;;;;;;5002080;28;20046;-64
2022/03/26 07:07:38;;;;;;;14.00;12.48;;;20.40;38.00;;;;;;5001900;28;20540;-64
2022/03/26 07:10:05;;;;;;;18.30;14.88;;;20.40;38.00;;;;;;5001616;28;20048;-65
2022/03/26 07:12:30;;;;;;;16.15;14.05;;;20.40;38.20;;;;;;5001905;28;20042;-65
2022/03/26 07:14:56;;;;;;;23.50;16.55;;;20.40;38.30;;;;;;5003288;28;20853;-65
2022/03/26 07:17:22;;;;;;;21.20;16.60;;;20.40;38.40;;;;;;5001715;28;20050;-66
2022/03/26 07:19:48;;;;;;;22.42;17.58;;;20.40;38.40;;;;;;5001398;28;20048;-66
2022/03/26 07:22:14;;;;;;;20.30;16.83;;;20.40;38.50;;;;;;5017404;28;20067;-65
2022/03/26 07:24:39;;;;;;;19.00;16.30;;;20.40;38.50;;;;;;5001978;28;20045;-65
2022/03/26 07:27:05;;;;;;;22.88;18.00;;;20.40;38.60;;;;;;5002115;28;20038;-65
2022/03/26 07:29:32;;;;;;;21.27;17.38;;;20.40;38.60;;;;;;5017645;28;20049;-65
2022/03/26 07:31:58;;;;;;;21.65;18.30;;;20.40;38.50;;;;;;5001118;28;20099;-65
2022/03/26 07:34:26;;;;;;;19.45;16.80;;;20.40;38.70;;;;;;5001330;28;20045;-67
2022/03/26 07:36:51;;;;;;;22.15;16.98;;;20.40;38.70;;;;;;5001130;28;20076;-66
2022/03/26 07:39:17;;;;;;;23.63;17.15;;;20.40;38.60;;;;;;5001143;28;20038;-64
2022/03/26 07:41:43;;;;;;;19.45;14.98;;;20.40;38.70;;;;;;5001730;28;20038;-63
2022/03/26 07:44:08;;;;;;;21.23;17.38;;;20.50;38.90;;;;;;5001009;28;20149;-66
2022/03/26 07:46:34;;;;;;;17.98;14.68;;;20.50;38.90;;;;;;4993258;28;20056;-67
2022/03/26 07:49:00;;;;;;;19.45;16.60;;;20.50;39.00;;;;;;5000485;28;20041;-66
2022/03/26 07:51:26;;;;;;;20.90;17.25;;;20.50;39.00;;;;;;5001129;28;20077;-67
2022/03/26 07:53:51;;;;;;;23.67;17.30;;;20.50;39.00;;;;;;4982576;28;20584;-67
2022/03/26 07:56:17;;;;;;;19.23;15.52;;;20.50;39.00;;;;;;4994203;28;20773;-66
2022/03/26 07:58:43;;;;;;;18.13;16.20;;;20.50;39.10;;;;;;5000441;28;20050;-65
2022/03/26 08:01:09;;;;;;;20.85;16.73;;;20.50;39.10;;;;;;4983060;28;20591;-65
2022/03/26 08:03:35;;;;;;;17.48;15.35;;;20.60;39.40;;;;;;5001244;28;20034;-64
2022/03/26 08:06:01;;;;;;;20.88;15.55;;;20.60;39.50;;;;;;5002858;28;20052;-62
2022/03/26 08:08:26;;;;;;;22.13;15.90;;;20.60;39.70;;;;;;5003024;28;20125;-64
2022/03/26 08:10:52;;;;;;;17.17;15.13;;;20.60;39.70;;;;;;5001631;28;20092;-64
2022/03/26 08:13:17;;;;;;;17.52;14.45;;;20.60;39.70;;;;;;5002513;28;20048;-64
2022/03/26 08:15:43;;;;;;;18.38;15.25;;;20.60;39.80;;;;;;4998866;28;20037;-64
2022/03/26 08:18:09;;;;;;;18.38;15.43;;;20.60;40.00;;;;;;5002757;28;20073;-64
2022/03/26 08:20:34;;;;;;;20.30;16.20;;;20.70;40.10;;;;;;5001606;28;20382;-63
2022/03/26 08:23:00;;;;;;;18.90;15.20;;;20.70;40.10;;;;;;4984975;28;20478;-63
2022/03/26 08:28:11;;;;;;;21.02;15.13;;;20.70;40.20;;;;;;5001860;28;20573;-66
2022/03/26 08:30:37;;;;;;;18.85;14.13;;;20.70;40.30;;;;;;4983066;28;20038;-67
2022/03/26 08:33:03;;;;;;;16.52;13.85;;;20.70;40.30;;;;;;4983010;28;20049;-64
2022/03/26 08:35:37;;;;;;;18.52;15.60;;;20.70;40.50;;;;;;4999887;28;20042;-62
2022/03/26 08:38:02;;;;;;;18.52;14.73;;;20.80;40.50;;;;;;5000797;28;20061;-63
2022/03/26 08:40:28;;;;;;;19.25;14.50;;;20.70;40.50;;;;;;4999653;28;20037;-63
2022/03/26 08:42:54;;;;;;;18.00;14.30;;;20.80;40.50;;;;;;4984558;28;20085;-61
2022/03/26 08:45:19;;;;;;;16.50;13.65;;;20.80;40.50;;;;;;4983325;28;20038;-62
2022/03/26 08:47:46;;;;;;;18.25;13.80;;;20.80;40.50;;;;;;5002077;28;20068;-61
2022/03/26 08:50:12;;;;;;;21.83;13.50;;;20.80;40.50;;;;;;5001065;28;20099;-61
2022/03/26 08:52:37;;;;;;;20.27;14.15;;;20.80;40.60;;;;;;5004227;28;20049;-61
2022/03/26 08:55:04;;;;;;;15.40;13.75;;;20.80;40.60;;;;;;4981361;28;20037;-62
2022/03/26 08:57:30;;;;;;;16.70;12.93;;;20.80;40.60;;;;;;4999744;28;20145;-68
2022/03/26 08:59:56;;;;;;;20.17;13.60;;;20.80;40.60;;;;;;5001567;28;20050;-63
2022/03/26 09:02:22;;;;;;;19.33;13.40;;;20.80;40.60;;;;;;5001663;28;20147;-63
2022/03/26 09:04:48;;;;;;;16.48;13.32;;;20.80;40.70;;;;;;4981010;28;20052;-63
2022/03/26 09:07:13;;;;;;;16.85;12.98;;;20.80;40.70;;;;;;4986193;28;20057;-62
2022/03/26 09:09:39;;;;;;;16.70;13.07;;;20.90;40.90;;;;;;5003222;28;20045;-62
2022/03/26 09:12:05;;;;;;;15.48;12.10;;;20.80;41.00;;;;;;5004222;28;20041;-63
2022/03/26 09:14:31;;;;;;;15.32;12.38;;;20.90;41.40;;;;;;5004403;28;20125;-63
2022/03/26 09:16:56;;;;;;;18.00;12.07;;;20.90;42.00;;;;;;5004577;28;20287;-63
2022/03/26 09:19:22;;;;;;;15.05;11.77;;;20.90;42.50;;;;;;5003472;28;20049;-64
2022/03/26 09:21:49;;;;;;;15.43;11.95;;;20.90;42.80;;;;;;5002859;28;20465;-64
2022/03/26 09:24:15;;;;;;;14.82;11.38;;;21.00;43.00;;;;;;5000513;28;20053;-63
2022/03/26 09:26:41;;;;;;;13.13;11.75;;;21.00;43.20;;;;;;5001848;28;20080;-63
2022/03/26 09:29:07;;;;;;;12.43;10.95;;;21.10;43.20;;;;;;5003531;28;20473;-64
2022/03/26 09:31:32;;;;;;;15.07;10.50;;;21.10;43.10;;;;;;5003420;28;20049;-63
2022/03/26 09:33:58;;;;;;;15.98;11.20;;;21.10;43.20;;;;;;5004498;28;20044;-64
2022/03/26 09:36:23;;;;;;;13.15;10.60;;;21.10;43.10;;;;;;5004018;28;20402;-64
2022/03/26 09:38:49;;;;;;;16.50;11.40;;;21.20;43.20;;;;;;4993513;28;20058;-64
2022/03/26 09:41:16;;;;;;;12.90;10.02;;;21.20;43.20;;;;;;4987899;28;20042;-64
2022/03/26 09:43:42;;;;;;;11.88;10.57;;;21.20;43.30;;;;;;4992265;28;20723;-64
2022/03/26 09:46:08;;;;;;;13.35;9.95;;;21.20;43.30;;;;;;4991688;28;20041;-64
2022/03/26 09:48:34;;;;;;;13.77;10.15;;;21.20;43.50;;;;;;4973875;28;20908;-64
2022/03/26 09:51:02;;;;;;;14.18;10.60;;;21.20;43.60;;;;;;4991197;28;20084;-63
2022/03/26 09:53:28;;;;;;;10.65;8.57;;;21.30;43.50;;;;;;4991754;28;20076;-64
2022/03/26 09:55:55;;;;;;;12.52;8.70;;;21.30;43.40;;;;;;4991764;28;20474;-63
2022/03/26 09:58:20;;;;;;;13.40;9.38;;;21.30;43.20;;;;;;4995226;28;20045;-63
2022/03/26 10:00:47;;;;;;;12.05;8.98;;;21.30;43.40;;;;;;4992055;28;20041;-63
2022/03/26 10:03:13;;;;;;;11.57;9.02;;;21.30;43.40;;;;;;4975595;28;20465;-63
2022/03/26 10:05:39;;;;;;;11.95;8.98;;;21.30;43.20;;;;;;4990907;28;20064;-63
2022/03/26 10:08:22;;;;;;;10.30;8.75;;;21.30;43.20;;;;;;4991445;28;20092;-63
2022/03/26 10:10:50;;;;;;;13.45;9.50;;;21.30;43.30;;;;;;4971186;28;20589;-63
2022/03/26 10:13:33;;;;;;;10.93;8.45;;;21.20;43.20;;;;;;4991886;28;20316;-64
2022/03/26 10:16:10;;;;;;;13.32;10.18;;;21.30;43.30;;;;;;4993889;28;20122;-65
2022/03/26 10:18:41;;;;;;;12.98;8.95;;;21.30;43.30;;;;;;4974464;28;20045;-63
2022/03/26 10:21:09;;;;;;;13.98;9.02;;;21.20;43.20;;;;;;4989669;28;20506;-63
2022/03/26 10:23:35;;;;;;;12.68;9.68;;;21.30;43.10;;;;;;4991244;28;20041;-65
2022/03/26 10:26:09;;;;;;;12.75;9.48;;;21.20;42.80;;;;;;4990723;28;20030;-62
2022/03/26 10:28:35;;;;;;;13.48;10.20;;;21.20;42.70;;;;;;4991494;28;20038;-64
2022/03/26 10:34:09;;;;;;;13.68;10.70;;;21.20;43.00;;;;;;4987441;28;20058;-62
2022/03/26 10:36:56;;;;;;;15.25;11.10;;;21.20;43.60;;;;;;4989188;28;20068;-61
2022/03/26 10:39:24;;;;;;;15.07;10.25;;;21.30;43.00;;;;;;4973389;28;20053;-63
2022/03/26 10:41:52;;;;;;;13.13;10.02;;;21.30;43.00;;;;;;4975003;28;20034;-60
2022/03/26 10:44:22;;;;;;;13.30;9.60;;;21.30;43.00;;;;;;4977366;28;20086;-62
2022/03/26 10:46:52;;;;;;;11.57;9.07;;;21.30;42.90;;;;;;4975665;28;20121;-62
2022/03/26 10:49:38;;;;;;;12.10;10.27;;;21.30;43.00;;;;;;4973421;28;20042;-64
2022/03/26 10:52:12;;;;;;;15.15;10.57;;;21.30;42.90;;;;;;4959908;28;20539;-62
2022/03/26 10:54:38;;;;;;;18.40;9.85;;;21.30;42.80;;;;;;4974572;28;20041;-62
2022/03/26 10:57:05;;;;;;;13.57;9.55;;;21.30;43.00;;;;;;4957001;28;20061;-64
2022/03/26 10:59:31;;;;;;;11.60;9.68;;;21.30;43.10;;;;;;4974260;28;20171;-63
2022/03/26 11:02:01;;;;;;;13.10;9.25;;;21.30;43.10;;;;;;4975000;28;20886;-62
2022/03/26 11:04:28;;;;;;;13.00;8.82;;;21.30;43.20;;;;;;4974264;28;20054;-64
2022/03/26 11:06:55;;;;;;;9.90;8.02;;;21.30;43.20;;;;;;4976387;28;20133;-65
2022/03/26 11:09:20;;;;;;;14.57;8.40;;;21.30;43.30;;;;;;4975142;28;20042;-63
2022/03/26 11:11:49;;;;;;;13.13;8.70;;;21.30;43.30;;;;;;4973339;28;20058;-64
2022/03/26 11:14:19;;;;;;;13.40;8.35;;;21.30;43.40;;;;;;4975466;28;20102;-66
2022/03/26 11:17:18;;;;;;;12.50;8.20;;;21.30;43.40;;;;;;4973264;28;20606;-63
2022/03/26 11:20:09;;;;;;;10.80;7.55;;;21.30;44.40;;;;;;4971202;28;20141;-65
2022/03/26 11:23:03;;;;;;;12.75;7.55;;;21.30;44.50;;;;;;4973086;28;20127;-65
2022/03/26 11:25:47;;;;;;;10.00;7.72;;;21.30;44.00;;;;;;4970059;28;20545;-64
2022/03/26 11:28:46;;;;;;;8.10;6.70;;;21.30;44.10;;;;;;4976379;28;20041;-64
2022/03/26 11:31:24;;;;;;;15.15;7.45;;;21.30;44.10;;;;;;4973842;28;20049;-64
2022/03/26 11:34:00;;;;;;;10.55;6.95;;;21.30;44.00;;;;;;4974590;28;20042;-65
2022/03/26 11:36:27;;;;;;;9.60;6.78;;;21.30;44.10;;;;;;4974973;28;20094;-64
2022/03/26 11:38:55;;;;;;;10.30;7.18;;;21.30;44.10;;;;;;4999197;28;20054;-63
2022/03/26 11:41:35;;;;;;;9.30;6.45;;;21.30;44.40;;;;;;4985240;28;20211;-63
2022/03/26 11:44:01;;;;;;;9.95;6.53;;;21.30;44.40;;;;;;5001890;28;20045;-63
2022/03/26 11:52:18;;;;;;;9.85;6.35;;;21.30;44.60;;;;;;5001940;28;20137;-65
2022/03/26 11:54:46;;;;;;;9.90;6.13;;;21.40;44.50;;;;;;5000905;28;20052;-64
2022/03/26 11:57:21;;;;;;;9.32;7.20;;;21.30;44.30;;;;;;5002131;28;20394;-65
2022/03/26 11:59:47;;;;;;;6.43;5.82;;;21.30;44.10;;;;;;5000376;28;20125;-63
2022/03/26 12:02:19;;;;;;;6.90;6.10;;;21.40;44.10;;;;;;5003057;28;20042;-63
2022/03/26 12:04:56;;;;;;;8.90;5.93;;;21.40;44.20;;;;;;4984509;28;20053;-64
2022/03/26 12:07:26;;;;;;;9.15;6.13;;;21.40;44.10;;;;;;5002004;28;20057;-65
2022/03/26 12:10:04;;;;;;;6.97;5.87;;;21.30;44.10;;;;;;5002970;28;20252;-65
2022/03/26 12:12:48;;;;;;;7.82;6.28;;;21.40;44.50;;;;;;5001523;28;20297;-65
2022/03/26 12:15:14;;;;;;;6.50;5.75;;;21.40;44.90;;;;;;4999614;28;20563;-65
2022/03/26 12:17:46;;;;;;;7.82;5.47;;;21.40;44.90;;;;;;5002828;28;20042;-64
2022/03/26 12:20:38;;;;;;;7.60;5.13;;;21.40;45.20;;;;;;5001518;28;20050;-64
2022/03/26 12:23:07;;;;;;;7.80;5.43;;;21.40;45.20;;;;;;5002288;28;20046;-65
2022/03/26 12:25:54;;;;;;;9.85;5.28;;;21.40;45.10;;;;;;5001124;28;20121;-64
2022/03/26 12:28:40;;;;;;;10.77;5.07;;;21.40;45.20;;;;;;4980651;28;20081;-65
2022/03/26 12:31:08;;;;;;;7.50;5.05;;;21.40;45.20;;;;;;4997288;28;20046;-64
2022/03/26 12:33:52;;;;;;;8.68;4.68;;;21.40;45.40;;;;;;5000685;28;20038;-64
2022/03/26 12:36:20;;;;;;;5.22;4.72;;;21.40;45.50;;;;;;5001780;28;20150;-64
2022/03/26 12:38:47;;;;;;;7.38;4.53;;;21.40;45.40;;;;;;4990431;28;20069;-65
2022/03/26 12:41:14;;;;;;;6.78;4.53;;;21.40;45.60;;;;;;4985136;28;20093;-60
2022/03/26 12:43:39;;;;;;;7.53;4.68;;;21.40;45.50;;;;;;4986616;28;20117;-63
2022/03/26 12:46:13;;;;;;;8.68;4.72;;;21.40;45.70;;;;;;4988263;28;20478;-62